Time;durP1;ratioP1;P1;durP2;ratioP2;P2;SDS_P1;SDS_P2;PMS_P1;PMS_P2;Temp;Humidity;BMP_temperature;BMP_pressure;BME280_temperature;BME280_humidity;BME280_pressure;Samples;Min_cycle;Max_cycle;Signal;HPM_P1;HPM_P2
2022/11/06 00:00:57;;;;;;;;;;;10.50;80.30;;;9.48;nan;96067.38;5063103;28;20226;-83
2022/11/06 00:03:25;;;;;;;;;;;10.50;80.40;;;9.49;nan;96062.72;5048143;28;19920;-82
2022/11/06 00:08:39;;;;;;;;;;;10.50;81.20;;;9.49;nan;96060.00;5048212;28;19920;-82
2022/11/06 00:11:11;;;;;;;;;;;10.50;80.30;;;9.48;nan;96067.38;5048296;28;20213;-83
2022/11/06 00:13:40;;;;;;;;;;;10.50;80.30;;;9.47;nan;96065.75;5047842;28;19942;-83
2022/11/06 00:16:09;;;;;;;;;;;10.50;80.40;;;9.48;nan;96061.09;5047840;28;19921;-83
2022/11/06 00:18:37;;;;;;;;;;;10.50;80.30;;;9.49;nan;96071.75;5064822;28;19923;-83
2022/11/06 00:21:09;;;;;;;;;;;10.50;80.40;;;9.48;nan;96072.84;5064920;28;19920;-83
2022/11/06 00:23:37;;;;;;;;;;;10.50;80.30;;;9.48;nan;96067.38;5065847;28;19921;-83
2022/11/06 00:26:06;;;;;;;;;;;10.50;80.40;;;9.48;nan;96064.66;5065565;28;19920;-83
2022/11/06 00:28:34;;;;;;;;;;;10.50;80.30;;;9.48;nan;96067.38;5064862;28;19920;-83
2022/11/06 00:31:04;;;;;;;;;;;10.50;80.40;;;9.45;nan;96067.91;5064559;28;19921;-83
2022/11/06 00:33:32;;;;;;;;;;;10.50;80.40;;;9.48;nan;96066.56;5047702;28;19920;-83
2022/11/06 00:36:02;;;;;;;;;;;10.50;80.30;;;9.48;nan;96061.94;5064247;28;19921;-83
2022/11/06 00:38:30;;;;;;;;;;;10.50;80.40;;;9.48;nan;96058.34;5064651;28;20208;-83
2022/11/06 00:41:01;;;;;;;;;;;10.50;80.30;;;9.48;nan;96061.09;5064633;28;19921;-83
2022/11/06 00:43:29;;;;;;;;;;;10.50;80.40;;;9.48;nan;96063.81;5064193;28;19927;-83
2022/11/06 00:46:02;;;;;;;;;;;10.50;80.30;;;9.48;nan;96066.56;5065209;28;19920;-83
2022/11/06 00:48:30;;;;;;;;;;;10.50;80.30;;;9.49;nan;96073.66;5081278;28;20143;-83
2022/11/06 00:51:02;;;;;;;;;;;10.50;80.30;;;9.47;nan;96065.75;5064451;28;19927;-83
2022/11/06 00:53:30;;;;;;;;;;;10.50;80.40;;;9.47;nan;96065.75;5064089;28;20228;-83
2022/11/06 00:56:04;;;;;;;;;;;10.50;80.30;;;9.47;nan;96060.28;5080710;28;19927;-83
2022/11/06 00:58:32;;;;;;;;;;;10.50;80.30;;;9.48;nan;96061.94;5047545;28;19926;-83
2022/11/06 01:01:07;;;;;;;;;;;10.50;80.30;;;9.48;nan;96072.84;5062696;28;19927;-83
2022/11/06 01:03:35;;;;;;;;;;;10.50;80.30;;;9.48;nan;96072.84;5065116;28;19927;-83
2022/11/06 01:06:05;;;;;;;;;;;10.50;80.40;;;9.48;nan;96067.38;5063670;28;19927;-83
2022/11/06 01:08:33;;;;;;;;;;;10.50;80.40;;;9.49;nan;96073.66;5046568;28;19927;-83
2022/11/06 01:11:08;;;;;;;;;;;10.50;80.40;;;9.49;nan;96069.00;5064035;28;20118;-83
2022/11/06 01:13:36;;;;;;;;;;;10.50;80.40;;;9.48;nan;96069.28;5047171;28;19927;-83
2022/11/06 01:16:05;;;;;;;;;;;10.50;80.30;;;9.48;nan;96064.66;5064845;28;19920;-83
2022/11/06 01:18:36;;;;;;;;;;;10.50;80.40;;;9.49;nan;96073.66;5047197;28;19920;-83
2022/11/06 01:21:05;;;;;;;;;;;10.50;80.30;;;9.48;nan;96078.31;5063842;28;19921;-83
2022/11/06 01:23:33;;;;;;;;;;;10.50;80.30;;;9.48;nan;96075.59;5063632;28;20216;-82
2022/11/06 01:26:01;;;;;;;;;;;10.50;80.40;;;9.48;nan;96067.38;5046829;28;20139;-83
2022/11/06 01:28:29;;;;;;;;;;;10.50;80.30;;;9.47;nan;96054.81;5063516;28;19920;-82
2022/11/06 01:30:58;;;;;;;;;;;10.50;80.30;;;9.48;nan;96070.13;5047081;28;19927;-83
2022/11/06 01:33:26;;;;;;;;;;;10.50;80.30;;;9.47;nan;96067.63;5046211;28;19927;-83
2022/11/06 01:35:55;;;;;;;;;;;10.50;80.30;;;9.48;nan;96064.66;5046511;28;19943;-82
2022/11/06 01:38:23;;;;;;;;;;;10.50;80.30;;;9.47;nan;96068.47;5063719;28;20231;-83
2022/11/06 01:40:51;;;;;;;;;;;10.50;80.30;;;9.48;nan;96067.38;5064782;28;20132;-83
2022/11/06 01:43:20;;;;;;;;;;;10.50;80.40;;;9.46;nan;96064.09;5064447;28;19920;-83
2022/11/06 01:45:48;;;;;;;;;;;10.50;80.30;;;9.48;nan;96055.63;5064309;28;20205;-83
2022/11/06 01:48:16;;;;;;;;;;;10.50;80.30;;;9.46;nan;96064.09;5063251;28;19920;-83
2022/11/06 01:50:46;;;;;;;;;;;10.50;80.30;;;9.48;nan;96069.28;5063500;28;19922;-83
2022/11/06 01:53:15;;;;;;;;;;;10.50;80.30;;;9.46;nan;96080.50;5046266;28;19920;-83
2022/11/06 01:55:45;;;;;;;;;;;10.50;80.30;;;9.47;nan;96087.59;5063074;28;20115;-83
2022/11/06 01:58:16;;;;;;;;;;;10.50;80.30;;;9.47;nan;96084.88;5063253;28;20116;-83
2022/11/06 02:00:44;;;;;;;;;;;10.50;80.30;;;9.47;nan;96082.13;5046606;28;20231;-82
2022/11/06 02:03:13;;;;;;;;;;;10.50;80.30;;;9.46;nan;96080.50;5064215;28;20231;-83
2022/11/06 02:05:41;;;;;;;;;;;10.50;80.20;;;9.46;nan;96077.75;5063069;28;20250;-84
2022/11/06 02:08:11;;;;;;;;;;;10.50;80.20;;;9.46;nan;96080.50;5063010;28;19940;-83
2022/11/06 02:10:41;;;;;;;;;;;10.50;80.30;;;9.45;nan;96078.84;5063177;28;20127;-83
2022/11/06 02:13:17;;;;;;;;;;;10.50;80.30;;;9.45;nan;96087.03;5046260;28;20212;-84
2022/11/06 02:15:48;;;;;;;;;;;10.50;80.30;;;9.46;nan;96085.97;5062740;28;19921;-84
2022/11/06 02:18:27;;;;;;;;;;;10.50;80.30;;;9.46;nan;96088.69;5079757;28;20201;-84
2022/11/06 02:21:33;;;;;;;;;;;10.40;80.20;;;9.46;nan;96090.59;5062934;28;19921;-84
2022/11/06 02:24:14;;;;;;;;;;;10.50;80.30;;;9.46;nan;96083.22;5037812;28;19921;-84
2022/11/06 02:27:01;;;;;;;;;;;10.50;80.30;;;9.46;nan;96094.16;5063630;28;19927;-84
2022/11/06 02:29:31;;;;;;;;;;;10.50;80.30;;;9.45;nan;96092.50;5064076;28;19920;-83
2022/11/06 02:31:59;;;;;;;;;;;10.40;80.20;;;9.46;nan;96085.13;5062619;28;19946;-84
2022/11/06 02:34:27;;;;;;;;;;;10.40;80.30;;;9.46;nan;96098.78;5062499;28;19920;-84
2022/11/06 02:36:58;;;;;;;;;;;10.40;80.30;;;9.45;nan;96100.72;5062537;28;19939;-83
2022/11/06 02:39:26;;;;;;;;;;;10.40;80.30;;;9.45;nan;96095.25;5062820;28;20215;-84
2022/11/06 02:41:54;;;;;;;;;;;10.50;80.50;;;9.46;nan;96106.97;5045916;28;19921;-83
2022/11/06 02:44:25;;;;;;;;;;;10.40;80.40;;;9.45;nan;96099.88;5045941;28;19927;-83
2022/11/06 02:46:53;;;;;;;;;;;10.50;80.40;;;9.44;nan;96107.25;5045468;28;20116;-84
2022/11/06 02:49:24;;;;;;;;;;;10.40;80.40;;;9.45;nan;96106.16;5063740;28;19920;-83
2022/11/06 02:51:54;;;;;;;;;;;10.40;80.30;;;9.44;nan;96099.06;5062311;28;19942;-83
2022/11/06 02:54:23;;;;;;;;;;;10.40;80.30;;;9.45;nan;96102.59;5045629;28;19921;-83
2022/11/06 02:56:51;;;;;;;;;;;10.40;80.30;;;9.44;nan;96111.88;5061890;28;19925;-84
2022/11/06 02:59:21;;;;;;;;;;;10.40;80.40;;;9.43;nan;96107.50;5062389;28;19920;-83
2022/11/06 03:01:51;;;;;;;;;;;10.40;80.40;;;9.44;nan;96110.00;5078926;28;19921;-83
2022/11/06 03:04:24;;;;;;;;;;;10.40;80.40;;;9.44;nan;96110.00;5045681;28;19924;-83
2022/11/06 03:06:53;;;;;;;;;;;10.40;80.30;;;9.44;nan;96120.91;5028943;28;19921;-84
2022/11/06 03:09:24;;;;;;;;;;;10.40;80.40;;;9.44;nan;96115.44;5062521;28;19929;-84
2022/11/06 03:11:54;;;;;;;;;;;10.40;80.30;;;9.44;nan;96123.66;5062377;28;19929;-83
2022/11/06 03:14:24;;;;;;;;;;;10.40;80.30;;;9.42;nan;96123.09;5062936;28;20116;-84
2022/11/06 03:16:55;;;;;;;;;;;10.40;80.30;;;9.43;nan;96122.00;5045262;28;19920;-83
2022/11/06 03:19:25;;;;;;;;;;;10.40;80.20;;;9.44;nan;96131.00;5062729;28;19920;-83
2022/11/06 03:21:57;;;;;;;;;;;10.40;80.30;;;9.42;nan;96131.28;5060951;28;19920;-84
2022/11/06 03:24:28;;;;;;;;;;;10.40;80.30;;;9.43;nan;96129.38;5045204;28;19920;-83
2022/11/06 03:26:56;;;;;;;;;;;10.40;80.30;;;9.42;nan;96131.28;5061609;28;19923;-84
2022/11/06 03:29:26;;;;;;;;;;;10.40;80.40;;;9.41;nan;96132.38;5045389;28;19927;-83
2022/11/06 03:31:56;;;;;;;;;;;10.40;80.40;;;9.41;nan;96137.84;5063672;28;20213;-84
2022/11/06 03:34:28;;;;;;;;;;;10.40;80.30;;;9.42;nan;96139.47;5065280;28;20209;-83
2022/11/06 03:36:59;;;;;;;;;;;10.40;80.40;;;9.41;nan;96137.84;5048446;28;19926;-83
2022/11/06 03:39:28;;;;;;;;;;;10.40;80.40;;;9.41;nan;96128.84;5048976;28;19928;-84
2022/11/06 03:41:58;;;;;;;;;;;10.40;80.40;;;9.42;nan;96144.13;5048672;28;20121;-84
2022/11/06 03:44:28;;;;;;;;;;;10.50;80.60;;;9.41;nan;96143.31;5066368;28;19928;-84
2022/11/06 03:46:59;;;;;;;;;;;10.40;80.40;;;9.40;nan;96136.19;5064998;28;19921;-83
2022/11/06 03:49:28;;;;;;;;;;;10.40;80.40;;;9.41;nan;96140.56;5065465;28;19920;-84
2022/11/06 03:51:58;;;;;;;;;;;10.40;80.50;;;9.41;nan;96139.75;5065346;28;20243;-83
2022/11/06 03:54:26;;;;;;;;;;;10.40;80.40;;;9.41;nan;96134.28;5081882;28;19927;-84
2022/11/06 03:56:57;;;;;;;;;;;10.40;80.40;;;9.40;nan;96136.19;5048108;28;19928;-84
2022/11/06 03:59:26;;;;;;;;;;;10.40;80.60;;;9.40;nan;96129.91;5048506;28;19921;-83
2022/11/06 04:01:54;;;;;;;;;;;10.40;80.50;;;9.40;nan;96128.00;5048268;28;19927;-83
2022/11/06 04:04:25;;;;;;;;;;;10.40;80.60;;;9.40;nan;96136.19;5066078;28;20112;-84
2022/11/06 04:06:55;;;;;;;;;;;10.40;80.60;;;9.40;nan;96136.19;5048077;28;19977;-84
2022/11/06 04:14:55;;;;;;;;;;;10.40;80.40;;;9.40;nan;96124.44;5047594;28;20242;-83
2022/11/06 04:17:23;;;;;;;;;;;10.40;80.60;;;9.38;nan;96127.44;5064832;28;20102;-83
2022/11/06 04:19:54;;;;;;;;;;;10.40;80.50;;;9.38;nan;96135.63;5048416;28;20116;-83
2022/11/06 04:22:32;;;;;;;;;;;10.40;80.40;;;9.38;nan;96135.63;5031454;28;19920;-83
2022/11/06 04:28:02;;;;;;;;;;;10.40;80.30;;;9.39;nan;96145.47;5048084;28;19921;-84
2022/11/06 04:30:30;;;;;;;;;;;10.40;80.40;;;9.38;nan;96146.56;5064780;28;19921;-83
2022/11/06 04:33:02;;;;;;;;;;;10.40;80.40;;;9.37;nan;96147.63;5064605;28;20204;-83
2022/11/06 04:35:37;;;;;;;;;;;10.40;80.40;;;9.37;nan;96142.19;5065328;28;19920;-84
2022/11/06 04:38:08;;;;;;;;;;;10.40;80.30;;;9.37;nan;96139.44;5065868;28;19921;-83
2022/11/06 04:40:40;;;;;;;;;;;10.40;80.40;;;9.37;nan;96136.72;5064474;28;19927;-83
2022/11/06 04:43:12;;;;;;;;;;;10.40;80.50;;;9.37;nan;96144.91;5046630;28;19921;-84
2022/11/06 04:45:42;;;;;;;;;;;10.40;80.40;;;9.36;nan;96141.38;5064075;28;19920;-83
2022/11/06 04:48:09;;;;;;;;;;;10.40;80.50;;;9.36;nan;96143.25;5064417;28;20220;-84
2022/11/06 04:50:39;;;;;;;;;;;10.40;80.40;;;9.36;nan;96143.25;5047688;28;20221;-83
2022/11/06 04:53:09;;;;;;;;;;;10.40;80.40;;;9.35;nan;96147.91;5047362;28;19926;-84
2022/11/06 04:55:39;;;;;;;;;;;10.40;80.50;;;9.34;nan;96151.72;5063804;28;19921;-83
2022/11/06 04:58:06;;;;;;;;;;;10.40;80.40;;;9.36;nan;96151.47;5081068;28;19921;-84
2022/11/06 05:00:34;;;;;;;;;;;10.40;80.40;;;9.35;nan;96149.84;5065314;28;19920;-84
2022/11/06 05:03:02;;;;;;;;;;;10.40;80.50;;;9.34;nan;96149.00;5047303;28;20209;-84
2022/11/06 05:05:31;;;;;;;;;;;10.40;80.40;;;9.34;nan;96154.47;5046951;28;20233;-84
2022/11/06 05:08:00;;;;;;;;;;;10.30;80.40;;;9.34;nan;96148.19;5065325;28;19921;-83
2022/11/06 05:10:28;;;;;;;;;;;10.40;80.30;;;9.34;nan;96149.00;5064006;28;19920;-84
2022/11/06 05:12:56;;;;;;;;;;;10.40;80.40;;;9.34;nan;96156.38;5063949;28;20239;-83
2022/11/06 05:15:24;;;;;;;;;;;10.30;80.40;;;9.33;nan;96162.94;5063337;28;19927;-83
2022/11/06 05:17:52;;;;;;;;;;;10.40;80.40;;;9.34;nan;96159.13;5064074;28;19927;-84
2022/11/06 05:20:20;;;;;;;;;;;10.30;80.40;;;9.33;nan;96169.22;5064087;28;19926;-83
2022/11/06 05:22:59;;;;;;;;;;;10.30;80.50;;;9.33;nan;96163.75;5047143;28;19927;-83
2022/11/06 05:25:29;;;;;;;;;;;10.30;80.40;;;9.35;nan;96166.22;5063367;28;19920;-83
2022/11/06 05:27:57;;;;;;;;;;;10.30;80.60;;;9.34;nan;96176.31;5064904;28;20247;-82
2022/11/06 05:30:25;;;;;;;;;;;10.30;80.50;;;9.34;nan;96175.50;5063721;28;19925;-83
2022/11/06 05:32:53;;;;;;;;;;;10.30;80.50;;;9.36;nan;96184.25;5064905;28;19924;-83
2022/11/06 05:35:21;;;;;;;;;;;10.40;80.40;;;9.36;nan;96189.69;5046352;28;19920;-83
2022/11/06 05:37:49;;;;;;;;;;;10.40;80.30;;;9.35;nan;96188.91;5063706;28;19921;-84
2022/11/06 05:40:17;;;;;;;;;;;10.40;80.30;;;9.36;nan;96193.28;5063693;28;19924;-83
2022/11/06 05:42:47;;;;;;;;;;;10.40;80.40;;;9.37;nan;96191.34;5046806;28;19920;-84
2022/11/06 05:45:15;;;;;;;;;;;10.40;80.30;;;9.38;nan;96195.72;5062928;28;19921;-83
2022/11/06 05:47:42;;;;;;;;;;;10.40;80.30;;;9.39;nan;96208.31;5063488;28;19921;-84
2022/11/06 05:50:10;;;;;;;;;;;10.40;80.20;;;9.39;nan;96216.50;5046749;28;19927;-83
2022/11/06 05:52:38;;;;;;;;;;;10.40;80.20;;;9.40;nan;96212.69;5046746;28;19939;-84
2022/11/06 05:55:07;;;;;;;;;;;10.40;80.20;;;9.41;nan;96219.00;5062464;28;19927;-83
2022/11/06 05:57:35;;;;;;;;;;;10.40;80.20;;;9.42;nan;96216.00;5046569;28;19921;-83
2022/11/06 06:00:06;;;;;;;;;;;10.40;80.20;;;9.43;nan;96216.78;5064306;28;19921;-83
2022/11/06 06:02:40;;;;;;;;;;;10.40;80.20;;;9.45;nan;96222.81;5062894;28;19920;-83
2022/11/06 06:05:09;;;;;;;;;;;10.40;80.20;;;9.46;nan;96228.06;5062622;28;20135;-83
2022/11/06 06:07:36;;;;;;;;;;;10.50;80.20;;;9.49;nan;96221.22;5046282;28;20118;-84
2022/11/06 06:10:06;;;;;;;;;;;10.50;80.10;;;9.52;nan;96223.44;5046684;28;19920;-83
2022/11/06 06:12:33;;;;;;;;;;;10.50;79.80;;;9.56;nan;96224.53;5064091;28;19934;-83
2022/11/06 06:15:02;;;;;;;;;;;10.50;80.70;;;9.60;nan;96231.13;5062515;28;19920;-84
2022/11/06 06:17:31;;;;;;;;;;;10.60;79.60;;;9.64;nan;96228.69;5062914;28;19926;-84
2022/11/06 06:19:59;;;;;;;;;;;10.60;80.50;;;9.69;nan;96228.72;5063106;28;19920;-83
2022/11/06 06:22:27;;;;;;;;;;;10.70;79.50;;;9.73;nan;96238.06;5046211;28;20209;-84
2022/11/06 06:24:55;;;;;;;;;;;10.70;79.30;;;9.77;nan;96235.63;5062496;28;19920;-83
2022/11/06 06:27:26;;;;;;;;;;;10.80;79.30;;;9.81;nan;96242.22;5079745;28;19921;-83
2022/11/06 06:29:54;;;;;;;;;;;10.80;79.10;;;9.84;nan;96252.59;5046107;28;20238;-83
2022/11/06 06:32:22;;;;;;;;;;;10.80;79.20;;;9.87;nan;96243.06;5062802;28;19927;-84
2022/11/06 06:34:51;;;;;;;;;;;10.90;79.30;;;9.90;nan;96251.56;5062252;28;20120;-84
2022/11/06 06:37:19;;;;;;;;;;;10.90;79.30;;;9.94;nan;96263.59;5062788;28;19927;-83
2022/11/06 06:39:47;;;;;;;;;;;10.90;80.00;;;9.97;nan;96256.78;5046067;28;19927;-83
2022/11/06 06:42:15;;;;;;;;;;;10.90;79.20;;;9.98;nan;96251.03;5062816;28;19920;-84
2022/11/06 06:44:43;;;;;;;;;;;11.00;79.10;;;10.02;nan;96265.00;5062158;28;19920;-84
2022/11/06 06:47:10;;;;;;;;;;;11.00;79.00;;;10.05;nan;96264.47;5062472;28;20113;-84
2022/11/06 06:49:38;;;;;;;;;;;11.00;78.80;;;10.06;nan;96266.13;5046041;28;19927;-84
2022/11/06 06:52:08;;;;;;;;;;;11.10;78.80;;;10.09;nan;96260.13;5045802;28;19920;-84
2022/11/06 06:54:35;;;;;;;;;;;11.10;78.80;;;10.12;nan;96258.75;5062192;28;19922;-83
2022/11/06 06:57:04;;;;;;;;;;;11.10;78.80;;;10.14;nan;96262.06;5045384;28;20230;-84
2022/11/06 06:59:32;;;;;;;;;;;11.10;79.10;;;10.17;nan;96257.97;5062465;28;19927;-83
2022/11/06 07:02:00;;;;;;;;;;;11.10;79.30;;;10.17;nan;96255.22;5062364;28;19924;-83
2022/11/06 07:04:27;;;;;;;;;;;11.20;79.10;;;10.20;nan;96257.44;5045534;28;19921;-83
2022/11/06 07:06:55;;;;;;;;;;;11.20;79.30;;;10.22;nan;96253.31;5065019;28;19921;-83
2022/11/06 07:09:24;;;;;;;;;;;11.20;79.20;;;10.24;nan;96259.38;5067121;28;19921;-84
2022/11/06 07:11:52;;;;;;;;;;;11.20;79.20;;;10.26;nan;96262.66;5067036;28;19921;-84
2022/11/06 07:14:20;;;;;;;;;;;11.30;79.10;;;10.28;nan;96254.16;5065832;28;19927;-84
2022/11/06 07:16:48;;;;;;;;;;;11.30;78.90;;;10.33;nan;96261.59;5048844;28;19921;-84
2022/11/06 07:19:16;;;;;;;;;;;11.30;78.90;;;10.36;nan;96256.41;5049370;28;19979;-84
2022/11/06 07:21:44;;;;;;;;;;;11.30;78.80;;;10.39;nan;96261.34;5049114;28;20131;-84
2022/11/06 07:24:12;;;;;;;;;;;11.40;78.60;;;10.43;nan;96251.53;5066752;28;19920;-84
2022/11/06 07:26:41;;;;;;;;;;;11.40;78.50;;;10.46;nan;96252.09;5048778;28;20120;-84
2022/11/06 07:29:09;;;;;;;;;;;11.40;78.40;;;10.49;nan;96257.84;5049098;28;19926;-84
2022/11/06 07:31:37;;;;;;;;;;;11.40;78.30;;;10.52;nan;96256.50;5048853;28;19927;-84
2022/11/06 07:34:05;;;;;;;;;;;11.50;78.20;;;10.52;nan;96248.28;5048889;28;20209;-84
2022/11/06 07:36:34;;;;;;;;;;;11.50;77.90;;;10.54;nan;96251.56;5048497;28;19927;-84
2022/11/06 07:39:02;;;;;;;;;;;11.50;77.80;;;10.56;nan;96246.66;5048807;28;20114;-85
2022/11/06 07:41:30;;;;;;;;;;;11.50;77.80;;;10.56;nan;96252.13;5065401;28;19925;-84
2022/11/06 07:43:59;;;;;;;;;;;11.50;77.70;;;10.57;nan;96257.34;5065168;28;19942;-84
2022/11/06 07:46:27;;;;;;;;;;;11.50;77.50;;;10.58;nan;96256.25;5048576;28;19921;-84
2022/11/06 07:48:55;;;;;;;;;;;11.50;77.40;;;10.59;nan;96248.84;5048624;28;20131;-84
2022/11/06 07:51:23;;;;;;;;;;;11.60;77.40;;;10.61;nan;96252.16;5048638;28;20226;-84
2022/11/06 07:53:51;;;;;;;;;;;11.60;77.40;;;10.61;nan;96249.41;5048452;28;19920;-84
2022/11/06 07:56:19;;;;;;;;;;;11.60;77.20;;;10.63;nan;96247.22;5048228;28;19924;-85
2022/11/06 07:58:47;;;;;;;;;;;11.60;77.30;;;10.62;nan;96242.84;5048634;28;20124;-84
2022/11/06 08:01:16;;;;;;;;;;;11.60;77.10;;;10.62;nan;96248.31;5065092;28;19927;-84
2022/11/06 08:03:44;;;;;;;;;;;11.60;77.20;;;10.63;nan;96249.13;5081869;28;19920;-84
2022/11/06 08:06:12;;;;;;;;;;;11.60;77.20;;;10.64;nan;96246.13;5048327;28;19924;-85
2022/11/06 08:08:40;;;;;;;;;;;11.60;77.10;;;10.65;nan;96255.97;5066182;28;19920;-85
2022/11/06 08:11:09;;;;;;;;;;;11.60;77.10;;;10.64;nan;96251.63;5065089;28;19924;-85
2022/11/06 08:13:37;;;;;;;;;;;11.60;77.10;;;10.64;nan;96248.88;5081588;28;20109;-84
2022/11/06 08:16:06;;;;;;;;;;;11.60;77.00;;;10.64;nan;96246.13;5047727;28;19927;-84
2022/11/06 08:18:35;;;;;;;;;;;11.60;77.20;;;10.65;nan;96247.75;5047897;28;19920;-85
2022/11/06 08:21:04;;;;;;;;;;;11.60;77.30;;;10.65;nan;96246.94;5064943;28;20147;-85
2022/11/06 08:23:32;;;;;;;;;;;11.60;77.40;;;10.66;nan;96243.94;5064614;28;20116;-85
2022/11/06 08:26:00;;;;;;;;;;;11.70;77.40;;;10.67;nan;96251.06;5047830;28;19920;-85
2022/11/06 08:28:28;;;;;;;;;;;11.70;77.50;;;10.67;nan;96251.06;5048016;28;19924;-84
2022/11/06 08:30:56;;;;;;;;;;;11.70;77.50;;;10.66;nan;96260.34;5064748;28;19920;-85
2022/11/06 08:33:24;;;;;;;;;;;11.70;77.50;;;10.67;nan;96256.53;5047758;28;19920;-85
2022/11/06 08:35:53;;;;;;;;;;;11.70;77.50;;;10.67;nan;96259.25;5064470;28;19920;-85
2022/11/06 08:38:21;;;;;;;;;;;11.70;77.60;;;10.68;nan;96252.69;5047940;28;19943;-85
2022/11/06 08:40:49;;;;;;;;;;;11.70;77.50;;;10.69;nan;96262.56;5048035;28;19920;-85
2022/11/06 08:43:17;;;;;;;;;;;11.70;77.60;;;10.69;nan;96259.81;5064223;28;19920;-84
2022/11/06 08:45:45;;;;;;;;;;;11.70;77.50;;;10.70;nan;96266.94;5064164;28;19920;-85
2022/11/06 08:48:13;;;;;;;;;;;11.70;77.50;;;10.68;nan;96266.38;5081282;28;19942;-85
2022/11/06 08:50:41;;;;;;;;;;;11.70;77.60;;;10.70;nan;96266.94;5031551;28;19924;-85
2022/11/06 08:53:10;;;;;;;;;;;11.70;77.60;;;10.70;nan;96272.41;5047518;28;20216;-85
2022/11/06 08:55:39;;;;;;;;;;;11.70;77.70;;;10.69;nan;96273.50;5063840;28;19920;-84
2022/11/06 08:58:07;;;;;;;;;;;11.70;77.70;;;10.69;nan;96273.50;5031144;28;20311;-85
2022/11/06 09:00:35;;;;;;;;;;;11.70;77.70;;;10.69;nan;96272.69;5047622;28;19920;-85
2022/11/06 09:03:04;;;;;;;;;;;11.70;77.70;;;10.67;nan;96270.22;5047352;28;19924;-85
2022/11/06 09:05:32;;;;;;;;;;;11.70;77.80;;;10.65;nan;96272.41;5047294;28;19926;-85
2022/11/06 09:08:00;;;;;;;;;;;11.70;77.70;;;10.64;nan;96273.50;5030835;28;19920;-85
2022/11/06 09:10:29;;;;;;;;;;;11.70;77.80;;;10.64;nan;96276.25;5063988;28;19920;-85
2022/11/06 09:12:58;;;;;;;;;;;11.60;77.70;;;10.59;nan;96266.09;5047313;28;19920;-85
2022/11/06 09:15:26;;;;;;;;;;;11.60;77.70;;;10.61;nan;96268.56;5046849;28;19921;-85
2022/11/06 09:17:54;;;;;;;;;;;11.60;77.80;;;10.58;nan;96272.69;5047219;28;19920;-85
2022/11/06 09:20:23;;;;;;;;;;;11.60;77.90;;;10.59;nan;96273.50;5047401;28;19921;-85
2022/11/06 09:22:51;;;;;;;;;;;11.60;78.00;;;10.56;nan;96274.00;5047189;28;20136;-85
2022/11/06 09:25:19;;;;;;;;;;;11.60;78.00;;;10.54;nan;96268.81;5046813;28;19942;-85
2022/11/06 09:27:51;;;;;;;;;;;11.60;78.10;;;10.52;nan;96268.25;5047112;28;19929;-85
2022/11/06 09:30:19;;;;;;;;;;;11.50;78.10;;;10.51;nan;96274.00;5046198;28;19927;-84
2022/11/06 09:32:48;;;;;;;;;;;11.50;78.30;;;10.50;nan;96275.09;5047076;28;19924;-85
2022/11/06 09:35:16;;;;;;;;;;;11.50;78.40;;;10.49;nan;96267.97;5046428;28;19920;-85
2022/11/06 09:37:44;;;;;;;;;;;11.50;78.40;;;10.46;nan;96265.78;5046983;28;19927;-85
2022/11/06 09:40:18;;;;;;;;;;;11.50;78.50;;;10.44;nan;96275.06;5047040;28;19942;-85
2022/11/06 09:42:54;;;;;;;;;;;11.50;78.60;;;10.43;nan;96272.63;5063577;28;19920;-85
2022/11/06 09:45:23;;;;;;;;;;;11.40;78.50;;;10.40;nan;96268.47;5046469;28;19921;-84
2022/11/06 09:47:53;;;;;;;;;;;11.40;78.70;;;10.40;nan;96265.75;5063628;28;19926;-85
2022/11/06 09:50:23;;;;;;;;;;;11.40;78.70;;;10.40;nan;96262.19;5047023;28;19920;-85
2022/11/06 09:52:52;;;;;;;;;;;11.40;78.80;;;10.40;nan;96262.19;5046700;28;19920;-85
2022/11/06 09:55:21;;;;;;;;;;;11.40;78.80;;;10.37;nan;96258.06;5046279;28;19920;-85
2022/11/06 09:57:54;;;;;;;;;;;11.40;78.80;;;10.35;nan;96260.25;5063203;28;20131;-86
2022/11/06 10:00:22;;;;;;;;;;;11.40;78.90;;;10.36;nan;96256.41;5063264;28;19927;-85
2022/11/06 10:02:51;;;;;;;;;;;11.40;78.90;;;10.35;nan;96257.50;5046359;28;19921;-85
2022/11/06 10:05:24;;;;;;;;;;;11.40;79.00;;;10.34;nan;96261.31;5045981;28;19920;-85
2022/11/06 10:07:53;;;;;;;;;;;11.40;79.10;;;10.36;nan;96264.63;5063351;28;19921;-85
2022/11/06 10:10:23;;;;;;;;;;;11.40;79.10;;;10.34;nan;96246.81;5063196;28;19920;-84
2022/11/06 10:13:03;;;;;;;;;;;11.40;79.20;;;10.34;nan;96255.00;5063188;28;19929;-85
2022/11/06 10:15:33;;;;;;;;;;;11.30;79.30;;;10.33;nan;96253.41;5062800;28;19927;-85
2022/11/06 10:18:05;;;;;;;;;;;11.40;79.20;;;10.33;nan;96247.94;5062970;28;19927;-85
2022/11/06 10:20:35;;;;;;;;;;;11.30;79.20;;;10.32;nan;96247.09;5046419;28;19920;-85
2022/11/06 10:23:05;;;;;;;;;;;11.30;79.10;;;10.28;nan;96248.69;5046573;28;19920;-86
2022/11/06 10:25:46;;;;;;;;;;;11.30;79.10;;;10.29;nan;96240.25;5065772;28;19920;-85
2022/11/06 10:28:38;;;;;;;;;;;11.30;79.10;;;10.29;nan;96244.88;5066169;28;19921;-85
2022/11/06 10:31:09;;;;;;;;;;;11.30;79.20;;;10.29;nan;96239.41;5084105;28;19920;-85
2022/11/06 10:33:43;;;;;;;;;;;11.30;79.20;;;10.27;nan;96241.59;5082546;28;20213;-85
2022/11/06 10:36:12;;;;;;;;;;;11.30;79.20;;;10.28;nan;96243.22;5049099;28;19928;-85
2022/11/06 10:38:41;;;;;;;;;;;11.30;79.30;;;10.27;nan;96231.47;5082960;28;20208;-85
2022/11/06 10:41:15;;;;;;;;;;;11.30;79.20;;;10.28;nan;96226.81;5066198;28;19920;-85
2022/11/06 10:43:47;;;;;;;;;;;11.30;79.30;;;10.28;nan;96226.81;5049104;28;19920;-85
2022/11/06 10:46:18;;;;;;;;;;;11.30;79.30;;;10.28;nan;96232.28;5065697;28;19920;-85
2022/11/06 10:48:47;;;;;;;;;;;11.30;79.30;;;10.28;nan;96224.06;5049413;28;19920;-85
2022/11/06 10:51:27;;;;;;;;;;;11.30;79.30;;;10.29;nan;96217.50;5049203;28;20292;-85
2022/11/06 10:54:00;;;;;;;;;;;11.30;79.30;;;10.28;nan;96213.97;5048993;28;20101;-84
2022/11/06 10:56:34;;;;;;;;;;;11.30;79.20;;;10.30;nan;96213.69;5048759;28;19920;-85
2022/11/06 10:59:03;;;;;;;;;;;11.30;79.20;;;10.29;nan;96212.03;5049226;28;19920;-85
2022/11/06 11:01:31;;;;;;;;;;;11.30;79.20;;;10.31;nan;96212.59;5048926;28;19926;-85
2022/11/06 11:03:59;;;;;;;;;;;11.30;79.10;;;10.31;nan;96207.13;5048854;28;19926;-85
2022/11/06 11:06:27;;;;;;;;;;;11.30;79.10;;;10.30;nan;96208.22;5065089;28;19920;-85
2022/11/06 11:08:55;;;;;;;;;;;11.30;79.10;;;10.29;nan;96201.09;5065763;28;19920;-85
2022/11/06 11:11:24;;;;;;;;;;;11.30;79.10;;;10.27;nan;96198.66;5048907;28;19927;-85
2022/11/06 11:14:14;;;;;;;;;;;11.30;79.10;;;10.28;nan;96196.72;5048782;28;20212;-85
2022/11/06 11:16:43;;;;;;;;;;;11.30;79.20;;;10.26;nan;96202.47;5048605;28;19920;-85
2022/11/06 11:19:33;;;;;;;;;;;11.30;79.20;;;10.26;nan;96190.72;5083491;28;19920;-86
2022/11/06 11:22:02;;;;;;;;;;;11.30;79.20;;;10.24;nan;96201.91;5083385;28;19926;-85
2022/11/06 11:24:30;;;;;;;;;;;11.30;79.30;;;10.24;nan;96199.16;5048721;28;19920;-85
2022/11/06 11:27:00;;;;;;;;;;;11.30;79.30;;;10.23;nan;96200.25;5065384;28;19920;-85
2022/11/06 11:29:31;;;;;;;;;;;11.20;79.30;;;10.22;nan;96201.34;5065512;28;19921;-85
2022/11/06 11:32:00;;;;;;;;;;;11.20;79.30;;;10.20;nan;96209.00;5048827;28;19921;-85
2022/11/06 11:34:29;;;;;;;;;;;11.20;79.40;;;10.21;nan;96199.69;5048453;28;19920;-85
2022/11/06 11:36:59;;;;;;;;;;;11.30;79.60;;;10.19;nan;96192.88;5065011;28;20101;-85
2022/11/06 11:39:31;;;;;;;;;;;11.20;79.50;;;10.20;nan;96194.50;5065352;28;19920;-85
2022/11/06 11:42:22;;;;;;;;;;;11.20;79.60;;;10.19;nan;96190.13;5048627;28;19926;-85
2022/11/06 11:45:14;;;;;;;;;;;11.20;79.70;;;10.19;nan;96192.88;5064606;28;19920;-85
2022/11/06 11:47:45;;;;;;;;;;;11.20;79.70;;;10.18;nan;96194.78;5065260;28;19920;-85
2022/11/06 11:50:29;;;;;;;;;;;11.20;79.60;;;10.18;nan;96199.41;5065231;28;19924;-85
2022/11/06 11:52:59;;;;;;;;;;;11.20;79.70;;;10.17;nan;96192.31;5066859;28;20208;-85
2022/11/06 11:55:28;;;;;;;;;;;11.20;79.70;;;10.17;nan;96195.88;5051425;28;19920;-85
2022/11/06 11:57:58;;;;;;;;;;;11.20;79.70;;;10.16;nan;96201.59;5068705;28;19920;-85
2022/11/06 12:00:27;;;;;;;;;;;11.20;79.70;;;10.16;nan;96198.88;5068387;28;19926;-85
2022/11/06 12:02:56;;;;;;;;;;;11.20;79.70;;;10.16;nan;96196.97;5068242;28;19927;-86